MV Evnia — 5BJG3 — position and weather

sailwx.info

Track history (hours):
 
Tides and Currents Weather Stations Pressure Air Temp Water Temp Dewpoint Dewpoint Depression Visibility Wind Speed Wind Dir Waves Ship Positions

MV Evnia

Last reported at 2015-Mar-24 22:21 UTC. Time now 2015-Mar-29 19:35 UTC.
Position N 01°16' E 104°12'.

Length 190 m; draft 12.5 m.

Type: Cargo ship. MMSI: 209279000.

Date/timePositionNaut miles runAvg speedWind from/ knotsBaromVisibWave heightAir tempDewpointWater temp
2015-Mar-24 22:21N 01°16' E 104°12'1012.6
2015-Mar-24 21:33N 01°15' E 104°02'9 9.4
2015-Mar-24 20:33N 01°12' E 103°53'6 1.5
2015-Mar-24 16:30N 01°10' E 103°47'1111.1
2015-Mar-24 15:33N 01°15' E 103°56'2 2.4
2015-Mar-24 14:31N 01°17' E 103°56'0 0.1
2015-Mar-24 13:32N 01°17' E 103°56'0 0.0
2015-Mar-24 12:21N 01°17' E 103°56'0 0.1
2015-Mar-24 11:33N 01°17' E 103°56'0 0.0
2015-Mar-24 10:32N 01°17' E 103°56'0 0.0
2015-Mar-24 09:33N 01°17' E 103°56'0 0.1
2015-Mar-24 08:31N 01°17' E 103°56'0 0.0
2015-Mar-24 07:25N 01°17' E 103°56'0 0.0
2015-Mar-24 06:32N 01°17' E 103°56'0 0.0
2015-Mar-24 05:23N 01°17' E 103°56'0 0.0
2015-Mar-24 04:30N 01°17' E 103°56'0 0.0
2015-Mar-24 03:27N 01°17' E 103°56'0 0.0
2015-Mar-24 02:25N 01°17' E 103°56'0 0.2
2015-Mar-24 01:29N 01°17' E 103°56'0 0.1
2015-Mar-24 00:33N 01°17' E 103°56'0 0.0
2015-Mar-23 23:32N 01°17' E 103°56'0 0.1
2015-Mar-23 22:31N 01°17' E 103°56'2 2.4
2015-Mar-23 21:33N 01°15' E 103°58'12 8.4
2015-Mar-23 20:09N 01°09' E 103°47'7311.1
2015-Mar-23 13:33N 01°41' E 102°42'1212.0
2015-Mar-23 12:33N 01°46' E 102°30'2211.1
2015-Mar-23 10:32N 01°57' E 102°11'  
Track history (hours):
 
Tides and Currents Weather Stations Pressure Air Temp Water Temp Dewpoint Dewpoint Depression Visibility Wind Speed Wind Dir Waves Ship Positions

MV Evnia

Last reported at 2015-Mar-24 22:21 UTC. Time now 2015-Mar-29 19:35 UTC.
Position N 01°16' E 104°12'.

Length 190 m; draft 12.5 m.

Type: Cargo ship. MMSI: 209279000.

Date/timePositionNaut miles runAvg speedWind from/ knotsBaromVisibWave heightAir tempDewpointWater temp
2015-Mar-24 22:21N 01°16' E 104°12'1012.6
2015-Mar-24 21:33N 01°15' E 104°02'9 9.4
2015-Mar-24 20:33N 01°12' E 103°53'6 1.5
2015-Mar-24 16:30N 01°10' E 103°47'1111.1
2015-Mar-24 15:33N 01°15' E 103°56'2 2.4
2015-Mar-24 14:31N 01°17' E 103°56'0 0.1
2015-Mar-24 13:32N 01°17' E 103°56'0 0.0
2015-Mar-24 12:21N 01°17' E 103°56'0 0.1
2015-Mar-24 11:33N 01°17' E 103°56'0 0.0
2015-Mar-24 10:32N 01°17' E 103°56'0 0.0
2015-Mar-24 09:33N 01°17' E 103°56'0 0.1
2015-Mar-24 08:31N 01°17' E 103°56'0 0.0
2015-Mar-24 07:25N 01°17' E 103°56'0 0.0
2015-Mar-24 06:32N 01°17' E 103°56'0 0.0
2015-Mar-24 05:23N 01°17' E 103°56'0 0.0
2015-Mar-24 04:30N 01°17' E 103°56'0 0.0
2015-Mar-24 03:27N 01°17' E 103°56'0 0.0
2015-Mar-24 02:25N 01°17' E 103°56'0 0.2
2015-Mar-24 01:29N 01°17' E 103°56'0 0.1
2015-Mar-24 00:33N 01°17' E 103°56'0 0.0
2015-Mar-23 23:32N 01°17' E 103°56'0 0.1
2015-Mar-23 22:31N 01°17' E 103°56'2 2.4
2015-Mar-23 21:33N 01°15' E 103°58'12 8.4
2015-Mar-23 20:09N 01°09' E 103°47'7311.1
2015-Mar-23 13:33N 01°41' E 102°42'1212.0
2015-Mar-23 12:33N 01°46' E 102°30'2211.1
2015-Mar-23 10:32N 01°57' E 102°11'  

Dump ship's entire track history